Aviation Digital Data Service (ADDS)

Output produced by METARs form (0020 UTC 26 January 2015)
found at http://www.aviationweather.gov/adds/metars/
 
KLNS 252353Z 00000KT 8SM FEW055 OVC075 03/00 A2987 RMK AO2 RAE26UPB2254E2258 SLP119 P0000 60000 T00280000 10039 20028 53022
KLNS 252253Z 00000KT 9SM -RA OVC055 03/00 A2985 RMK AO2 RAB19 SLP110 P0000 T00280000
KLNS 252153Z 23003KT 8SM BKN070 OVC085 04/M01 A2982 RMK AO2 SLP101 T00391006
KLNS 252053Z 30004KT 8SM SCT055 OVC075 03/M01 A2981 RMK AO2 SLP097 T00331006 51007
KLNS 251953Z 31006KT 10SM FEW039 BKN095 BKN120 03/M01 A2980 RMK AO2 SLP095 T00331006
KLNS 251853Z 28005KT 10SM CLR 04/M01 A2980 RMK AO2 SLP092 T00391006
KLNS 251753Z 30008KT 10SM FEW027 BKN039 BKN050 03/M01 A2979 RMK AO2 RAB1657E22 PRESFR SLP090 P0000 60000 T00331011 10039 20017 50004
KLNS 251653Z 26008KT 10SM OVC046 03/M01 A2982 RMK AO2 RAB41E52 SLP100 P0000 T00331011
KLNS 251553Z 25011KT 10SM SCT040 OVC048 03/M02 A2981 RMK AO2 SLP098 T00331017
KLNS 251453Z 26007KT 10SM BKN038 OVC050 02/M02 A2978 RMK AO2 SLP086 T00221017 51016
KLNS 251353Z 25009KT 10SM OVC037 02/M02 A2977 RMK AO2 SLP084 T00221022
KLNS 251253Z 26005KT 10SM OVC036 02/M02 A2976 RMK AO2 SLP081 T00171022
KLNS 251153Z 24008KT 10SM OVC048 02/M03 A2973 RMK AO2 SLP070 T00221028 10022 21006 53023
KLNS 251053Z 25008KT 10SM OVC042 02/M03 A2970 RMK AO2 SLP059 T00171028
KLNS 250953Z AUTO 25007KT 10SM OVC055 01/M03 A2967 RMK AO2 SLP051 T00111033
KLNS 250853Z AUTO 26008KT 10SM OVC055 01/M03 A2966 RMK AO2 SLP047 T00061033 51017
KLNS 250753Z AUTO 28008KT 10SM SCT065 01/M04 A2965 RMK AO2 SLP042 T00061039
KLNS 250653Z AUTO 27014KT 10SM OVC032 02/M03 A2963 RMK AO2 SLP036 T00171033
KLNS 250553Z AUTO 28012KT 10SM OVC032 01/M03 A2961 RMK AO2 SLP030 T00111033 10017 20006 53016
KLNS 250453Z AUTO 29012KT 8SM BKN032 OVC065 01/M04 A2959 RMK AO2 SLP022 T00111039 400280000
KLNS 250353Z AUTO 29014KT 9SM OVC031 01/M04 A2956 RMK AO2 SLP015 T00111039
KLNS 250253Z 29014KT 9SM BKN032 OVC065 01/M04 A2956 RMK AO2 SLP014 T00111039 53027
KLNS 250153Z 30014KT 10SM BKN060 01/M04 A2953 RMK AO2 SLP003 T00111044
KLNS 250053Z 30020G27KT 10SM BKN075 01/M04 A2951 RMK AO2 PK WND 29027/0052 SLP996 T00111044
KLNS 242353Z 29019KT 10SM CLR 02/M05 A2948 RMK AO2 SLP986 60000 T00171050 10028 20011 53023
KLNS 242253Z 29014KT 10SM CLR 02/M05 A2945 RMK AO2 SLP974 T00221050
KLNS 242153Z 27006KT 6SM HZ CLR 02/M01 A2942 RMK AO2 SLP966 T00221011
KLNS 242053Z 28009KT 6SM HZ CLR 02/M01 A2941 RMK AO2 SLP963 60000 T00221006 55006
KLNS 241953Z 28010KT 5SM HZ FEW017 OVC095 02/M01 A2939 RMK AO2 SLP957 T00221006
KLNS 241853Z 32011KT 5SM HZ FEW035 SCT043 BKN060 02/M01 A2939 RMK AO2 UPE25 SLP955 P0000 T00221006
KLNS 241833Z 33009KT 4SM BR FEW025 BKN036 OVC043 02/M01 A2940 RMK AO2 UPE25 P0000 T00171006
KLNS 241825Z 33007KT 3SM BR FEW014 BKN025 OVC038 02/00 A2940 RMK AO2 UPE25 PRESFR P0000 T00170000
KLNS 241812Z 31007KT 2 1/2SM UP BR SCT012 SCT019 OVC025 01/00 A2942 RMK AO2 P0000 T00110000
KLNS 241753Z 31012KT 2 1/2SM UP BR OVC014 01/M01 A2943 RMK AO2 RAB49E51UPB51 SLP969 P0000 60000 T00111006 10011 20000 58027
KLNS 241742Z 31012KT 2 1/2SM BR FEW011 OVC016 01/M01 A2943 RMK AO2 T00111006
KLNS 241731Z 32010KT 3SM BR OVC018 01/M01 A2944 RMK AO2 T00111006
KLNS 241653Z 31007KT 2 1/2SM BR FEW016 OVC022 01/M01 A2947 RMK AO2 SLP984 T00111006
KLNS 241642Z 31007KT 2 1/2SM BR SCT011 OVC021 01/M01 A2949 RMK AO2 PRESFR T00111006
KLNS 241620Z 32006KT 3SM BR SCT010 BKN024 OVC085 01/M01 A2951 RMK AO2 T00111006
KLNS 241553Z 35006KT 2 1/2SM BR FEW010 BKN049 OVC080 01/M01 A2950 RMK AO2 SLP994 T00111011
KLNS 241453Z 34006KT 2 1/2SM BR OVC034 01/M01 A2951 RMK AO2 SLP996 60000 T00061011 58031
KLNS 241443Z 34006KT 2 1/2SM BR FEW009 OVC034 01/M01 A2952 RMK AO2 T00061011
KLNS 241433Z 33005KT 3SM BR FEW009 SCT017 OVC034 01/M01 A2953 RMK AO2 T00061006
KLNS 241426Z 33004KT 3SM BR BKN009 BKN016 OVC034 01/M01 A2953 RMK AO2 T00061006
KLNS 241350Z 29004KT 2 1/2SM BR BKN005 BKN015 OVC027 01/M01 A2955 RMK AO2 SLP011 T00061006
KLNS 241349Z 29004KT 2 1/2SM BR SCT005 BKN009 OVC027 01/M01 A2955 RMK AO2
KLNS 241303Z 00000KT 3SM BR SCT005 BKN028 OVC032 01/M01 A2958 RMK AO2 T00061006
KLNS 241253Z 01004KT 2 1/2SM BR SCT005 BKN029 OVC039 01/M01 A2957 RMK AO2 UPE1156 SLP016 P0000 T00061006
KLNS 241227Z 05006KT 2 1/2SM BR FEW005 BKN013 OVC038 01/M01 A2957 RMK AO2 UPE1156 PRESFR P0000 T00061006